Time;durP1;ratioP1;P1;durP2;ratioP2;P2;SDS_P1;SDS_P2;PMS_P1;PMS_P2;Temp;Humidity;BMP_temperature;BMP_pressure;BME280_temperature;BME280_humidity;BME280_pressure;Samples;Min_cycle;Max_cycle;Signal;HPM_P1;HPM_P2
2022/03/09 00:02:22;;;;;;;11.82;6.72;;;;;;;0.59;54.13;99435.34;5018777;28;20117;-65
2022/03/09 00:05:08;;;;;;;12.05;7.38;;;;;;;0.32;55.10;99423.75;5013838;28;20057;-63
2022/03/09 00:07:53;;;;;;;12.32;7.78;;;;;;;0.60;54.96;99433.63;5012638;28;20534;-63
2022/03/09 00:10:39;;;;;;;12.70;6.43;;;;;;;0.78;53.88;99421.28;5012115;28;20068;-63
2022/03/09 00:13:24;;;;;;;13.77;6.95;;;;;;;0.53;54.99;99429.44;5011510;28;20081;-63
2022/03/09 00:16:10;;;;;;;10.35;5.97;;;;;;;0.19;55.89;99434.25;5012411;28;20061;-63
2022/03/09 00:18:56;;;;;;;13.90;6.95;;;;;;;0.53;55.07;99438.03;5012641;28;20064;-62
2022/03/09 00:21:42;;;;;;;11.88;5.45;;;;;;;0.82;53.83;99446.13;5012076;28;20053;-62
2022/03/09 00:24:28;;;;;;;14.68;8.23;;;;;;;0.52;55.63;99441.50;5012192;28;20061;-63
2022/03/09 00:27:14;;;;;;;14.40;6.30;;;;;;;0.66;54.38;99445.53;5010720;28;20061;-63
2022/03/09 00:30:01;;;;;;;10.77;6.10;;;;;;;0.94;53.90;99451.09;5003219;28;20057;-63
2022/03/09 00:32:47;;;;;;;11.98;7.22;;;;;;;0.92;54.76;99454.56;5010962;28;20106;-62
2022/03/09 00:35:33;;;;;;;10.65;6.45;;;;;;;0.81;55.02;99460.78;5018223;28;20092;-63
2022/03/09 00:38:19;;;;;;;11.93;6.70;;;;;;;0.25;56.58;99459.06;5030976;28;20068;-63
2022/03/09 00:41:04;;;;;;;15.90;7.57;;;;;;;-0.07;58.16;99465.53;5030922;28;20049;-63
2022/03/09 00:43:50;;;;;;;13.50;7.53;;;;;;;0.21;57.60;99463.41;5031596;28;20056;-62
2022/03/09 00:46:35;;;;;;;13.65;6.82;;;;;;;0.02;58.44;99464.56;5024392;28;20509;-62
2022/03/09 00:49:21;;;;;;;13.02;7.90;;;;;;;-0.10;59.09;99463.00;5002474;28;20069;-62
2022/03/09 00:52:06;;;;;;;13.70;7.53;;;;;;;0.08;58.29;99462.75;5012003;28;20065;-62
2022/03/09 00:54:52;;;;;;;13.73;8.15;;;;;;;-0.22;60.04;99453.72;5011827;28;20053;-62
2022/03/09 00:57:38;;;;;;;12.82;7.90;;;;;;;-0.73;62.22;99463.75;5002423;28;20056;-63
2022/03/09 01:00:24;;;;;;;15.52;8.18;;;;;;;-0.87;62.86;99459.63;5010983;28;20060;-63
2022/03/09 01:03:09;;;;;;;14.07;8.02;;;;;;;-1.02;63.74;99459.75;4997181;28;20593;-63
2022/03/09 01:05:55;;;;;;;14.82;8.55;;;;;;;-0.88;63.27;99467.31;5012124;28;20393;-63
2022/03/09 01:08:41;;;;;;;16.05;8.30;;;;;;;-0.82;63.38;99475.00;4996993;28;20113;-63
2022/03/09 01:11:27;;;;;;;12.30;6.85;;;;;;;-0.73;63.19;99458.59;5010784;28;20065;-63
2022/03/09 01:14:13;;;;;;;16.65;8.80;;;;;;;-0.94;64.66;99457.97;5018331;28;20087;-63
2022/03/09 01:16:59;;;;;;;14.57;8.20;;;;;;;-0.63;63.41;99451.63;5030247;28;20068;-63
2022/03/09 01:19:45;;;;;;;11.80;6.93;;;;;;;-0.30;61.68;99446.09;5016653;28;20397;-62
2022/03/09 01:22:31;;;;;;;12.98;7.78;;;;;;;0.09;60.40;99443.84;5031395;28;20061;-63
2022/03/09 01:25:16;;;;;;;9.35;5.57;;;;;;;0.25;58.98;99443.59;5016798;28;20068;-63
2022/03/09 01:28:02;;;;;;;11.63;7.05;;;;;;;0.40;58.44;99427.06;5030983;28;20413;-64
2022/03/09 01:30:48;;;;;;;13.35;6.45;;;;;;;0.23;58.56;99427.31;5031158;28;20053;-63
2022/03/09 01:33:33;;;;;;;12.93;6.32;;;;;;;0.29;58.76;99413.47;5030790;28;20528;-63
2022/03/09 01:36:19;;;;;;;15.40;7.53;;;;;;;0.31;58.89;99411.75;5031418;28;20061;-63
2022/03/09 01:39:05;;;;;;;15.57;8.05;;;;;;;0.06;59.89;99412.13;5031185;28;20148;-63
2022/03/09 01:41:51;;;;;;;13.00;6.90;;;;;;;0.02;60.16;99408.72;5031298;28;20073;-62
2022/03/09 01:44:37;;;;;;;12.15;7.22;;;;;;;-0.06;60.74;99405.41;5031308;28;20048;-62
2022/03/09 01:47:23;;;;;;;13.65;7.18;;;;;;;0.17;59.99;99399.91;5021809;28;20057;-62
2022/03/09 01:50:09;;;;;;;11.80;6.72;;;;;;;0.16;59.58;99405.09;5029959;28;20060;-63
2022/03/09 01:52:55;;;;;;;13.57;7.78;;;;;;;0.36;58.99;99402.19;5031819;28;20156;-62
2022/03/09 01:55:41;;;;;;;14.35;8.43;;;;;;;0.15;59.67;99401.66;5030687;28;20064;-63
2022/03/09 01:58:27;;;;;;;14.13;7.18;;;;;;;-0.03;59.97;99402.78;5033456;28;20097;-62
2022/03/09 02:01:12;;;;;;;16.40;8.60;;;;;;;-0.30;61.42;99403.16;5034774;28;20159;-62
2022/03/09 02:03:59;;;;;;;16.35;8.10;;;;;;;-0.47;62.40;99393.06;5035333;28;20056;-62
2022/03/09 02:06:45;;;;;;;15.35;7.25;;;;;;;-0.27;62.27;99394.53;5025609;28;20056;-63
2022/03/09 02:09:46;;;;;;;15.13;8.30;;;;;;;-0.26;62.10;99396.22;5035420;28;20053;-62
2022/03/09 02:12:32;;;;;;;13.93;8.57;;;;;;;-0.60;63.37;99401.84;5035060;28;20507;-63
2022/03/09 02:15:17;;;;;;;12.68;7.70;;;;;;;-0.34;61.96;99405.81;5034418;28;20516;-61
2022/03/09 02:18:04;;;;;;;16.80;8.18;;;;;;;-0.45;62.55;99409.38;5035271;28;20512;-62
2022/03/09 02:20:51;;;;;;;15.52;8.52;;;;;;;-0.34;62.42;99416.13;5034455;28;20064;-63
2022/03/09 02:23:37;;;;;;;13.90;8.18;;;;;;;-0.13;61.79;99417.50;5025146;28;20511;-63
2022/03/09 02:26:23;;;;;;;18.50;8.82;;;;;;;-0.39;63.11;99422.16;5033959;28;20539;-63
2022/03/09 02:29:08;;;;;;;14.07;8.30;;;;;;;-0.90;65.04;99431.31;5033272;28;20503;-63
2022/03/09 02:31:54;;;;;;;17.13;8.95;;;;;;;-0.89;65.32;99427.91;5034197;28;20512;-63
2022/03/09 02:34:40;;;;;;;14.45;8.15;;;;;;;-1.03;66.27;99432.34;5034257;28;20472;-62
2022/03/09 02:37:25;;;;;;;17.10;8.45;;;;;;;-1.12;65.88;99444.44;5033733;28;20057;-62
2022/03/09 02:40:14;;;;;;;15.30;7.22;;;;;;;-1.17;65.69;99441.03;5034019;28;20072;-62
2022/03/09 02:43:00;;;;;;;17.35;9.25;;;;;;;-1.31;66.57;99450.59;5034118;28;20061;-62
2022/03/09 02:45:45;;;;;;;16.17;8.68;;;;;;;-1.38;66.73;99452.38;5033106;28;20405;-63
2022/03/09 02:48:31;;;;;;;13.90;8.48;;;;;;;-1.37;66.62;99459.19;5019923;28;20053;-62
2022/03/09 02:51:16;;;;;;;13.10;8.52;;;;;;;-1.47;67.21;99455.88;5014207;28;20052;-62
2022/03/09 02:54:02;;;;;;;14.93;8.10;;;;;;;-1.26;66.06;99464.28;5013832;28;20069;-63
2022/03/09 02:56:48;;;;;;;16.80;8.95;;;;;;;-1.15;65.80;99469.31;5000465;28;20065;-62
2022/03/09 02:59:35;;;;;;;12.90;6.65;;;;;;;-0.65;63.50;99469.66;5013739;28;20069;-62
2022/03/09 03:02:21;;;;;;;15.20;7.55;;;;;;;-0.10;60.95;99468.16;5023329;28;20392;-62
2022/03/09 03:05:07;;;;;;;15.38;8.15;;;;;;;0.06;60.25;99477.41;5015775;28;20519;-62
2022/03/09 03:07:53;;;;;;;17.92;9.02;;;;;;;-0.36;61.51;99482.22;5030695;28;20075;-64
2022/03/09 03:10:41;;;;;;;11.60;6.70;;;;;;;-0.41;61.01;99474.56;5029828;28;20072;-64
2022/03/09 03:13:28;;;;;;;15.75;8.32;;;;;;;-0.54;61.50;99473.84;5029942;28;20049;-63
2022/03/09 03:16:13;;;;;;;19.00;9.63;;;;;;;-1.40;65.22;99472.09;5032561;28;20419;-63
2022/03/09 03:18:59;;;;;;;17.83;9.70;;;;;;;-1.69;66.99;99466.31;5016982;28;20056;-63
2022/03/09 03:21:44;;;;;;;17.50;8.98;;;;;;;-1.72;67.33;99450.91;5032228;28;20508;-62
2022/03/09 03:24:30;;;;;;;24.17;10.20;;;;;;;-1.99;68.62;99456.22;5030275;28;20080;-63
2022/03/09 03:27:16;;;;;;;15.85;10.00;;;;;;;-2.04;69.41;99454.56;5032107;28;20412;-61
2022/03/09 03:30:02;;;;;;;17.48;10.25;;;;;;;-2.06;69.96;99451.13;5030523;28;20056;-62
2022/03/09 03:32:48;;;;;;;17.70;9.95;;;;;;;-2.19;70.54;99451.22;5037985;28;20041;-63
2022/03/09 03:35:33;;;;;;;17.85;10.68;;;;;;;-2.35;71.56;99461.53;5033122;28;20065;-63
2022/03/09 03:38:19;;;;;;;17.77;9.88;;;;;;;-2.26;71.62;99450.38;5018366;28;20057;-64
2022/03/09 03:41:05;;;;;;;20.83;10.52;;;;;;;-2.41;72.25;99453.88;5022422;28;20052;-61
2022/03/09 03:43:50;;;;;;;16.85;9.05;;;;;;;-2.36;72.16;99454.72;5032718;28;20049;-62
2022/03/09 03:46:36;;;;;;;23.52;11.20;;;;;;;-2.36;72.04;99454.72;5032335;28;20060;-62
2022/03/09 03:49:22;;;;;;;19.73;11.43;;;;;;;-2.39;72.33;99452.16;5023685;28;20425;-63
2022/03/09 03:52:07;;;;;;;19.10;10.82;;;;;;;-2.49;72.63;99447.91;5032667;28;20054;-63
2022/03/09 03:54:54;;;;;;;20.38;11.48;;;;;;;-2.37;72.30;99450.41;5017842;28;20056;-62
2022/03/09 03:57:40;;;;;;;21.98;11.10;;;;;;;-2.32;71.95;99439.28;5031401;28;20056;-63
2022/03/09 04:00:26;;;;;;;19.45;10.57;;;;;;;-2.38;72.42;99442.72;5013738;28;20054;-62
2022/03/09 04:03:12;;;;;;;20.05;10.40;;;;;;;-2.20;71.70;99446.09;5030306;28;20045;-62
2022/03/09 04:05:58;;;;;;;20.00;10.38;;;;;;;-2.13;71.23;99440.03;5032756;28;20405;-62
2022/03/09 04:08:43;;;;;;;20.17;9.55;;;;;;;-2.07;70.92;99442.56;5019366;28;20065;-62
2022/03/09 04:11:30;;;;;;;19.05;10.30;;;;;;;-2.00;70.44;99438.25;5022649;28;20064;-63
2022/03/09 04:14:19;;;;;;;15.38;9.73;;;;;;;-1.87;69.89;99436.47;5030797;28;20444;-62
2022/03/09 04:17:05;;;;;;;16.55;9.07;;;;;;;-1.78;69.33;99440.69;5017286;28;20413;-62
2022/03/09 04:19:51;;;;;;;17.42;8.82;;;;;;;-1.64;68.50;99441.44;4997293;28;20069;-64
2022/03/09 04:22:37;;;;;;;15.65;9.30;;;;;;;-1.63;68.36;99448.28;5025877;28;20405;-65
2022/03/09 04:25:22;;;;;;;18.58;9.63;;;;;;;-1.77;68.97;99437.25;5032058;28;20500;-65
2022/03/09 04:28:08;;;;;;;18.55;8.68;;;;;;;-1.76;68.83;99447.50;5017403;28;20072;-64
2022/03/09 04:30:53;;;;;;;17.52;9.30;;;;;;;-1.93;69.52;99457.91;5017078;28;20065;-64
2022/03/09 04:33:41;;;;;;;20.35;9.50;;;;;;;-1.89;69.46;99451.88;5008702;28;20489;-64
2022/03/09 04:36:26;;;;;;;19.92;8.55;;;;;;;-1.77;68.54;99452.66;5044792;28;20052;-64
2022/03/09 04:39:12;;;;;;;14.77;8.18;;;;;;;-1.69;68.37;99460.31;5032206;28;20056;-63
2022/03/09 04:41:58;;;;;;;11.38;7.47;;;;;;;-1.40;66.99;99456.66;5005202;28;20515;-62
2022/03/09 04:44:44;;;;;;;14.65;8.05;;;;;;;-1.67;67.91;99451.75;5030566;28;20065;-65
2022/03/09 04:47:31;;;;;;;19.48;8.82;;;;;;;-1.82;68.34;99450.13;5017207;28;20053;-64
2022/03/09 04:50:17;;;;;;;15.82;8.18;;;;;;;-1.80;68.54;99450.97;5022252;28;20049;-65
2022/03/09 04:53:03;;;;;;;13.85;8.13;;;;;;;-1.56;67.54;99450.78;5016816;28;20112;-64
2022/03/09 04:55:49;;;;;;;14.20;7.70;;;;;;;-1.60;67.46;99455.13;5030241;28;20477;-63
2022/03/09 04:58:34;;;;;;;18.88;8.50;;;;;;;-1.54;67.02;99451.66;5022468;28;20049;-64
2022/03/09 05:01:20;;;;;;;15.35;8.13;;;;;;;-1.59;67.01;99456.81;5031571;28;20060;-63
2022/03/09 05:04:05;;;;;;;15.32;8.43;;;;;;;-1.83;68.20;99457.84;5031403;28;20052;-64
2022/03/09 05:06:51;;;;;;;16.85;9.10;;;;;;;-2.04;69.32;99455.38;5031662;28;20060;-63
2022/03/09 05:09:37;;;;;;;13.80;8.65;;;;;;;-1.97;69.14;99453.63;5031528;28;20056;-64
2022/03/09 05:12:23;;;;;;;16.52;8.43;;;;;;;-2.06;69.61;99461.41;5031489;28;20080;-64
2022/03/09 05:15:09;;;;;;;18.42;9.68;;;;;;;-2.24;70.52;99476.88;5010397;28;20061;-64
2022/03/09 05:17:55;;;;;;;18.02;8.40;;;;;;;-2.13;69.98;99479.41;5026602;28;20069;-62
2022/03/09 05:20:41;;;;;;;13.02;7.82;;;;;;;-1.94;69.04;99486.19;4996484;28;20049;-62
2022/03/09 05:23:27;;;;;;;16.40;8.45;;;;;;;-1.81;68.44;99481.81;5002329;28;20061;-64
2022/03/09 05:26:12;;;;;;;15.32;8.27;;;;;;;-1.46;66.90;99493.56;5011468;28;20508;-63
2022/03/09 05:28:58;;;;;;;16.67;8.35;;;;;;;-1.04;65.01;99489.78;5011710;28;20061;-63
2022/03/09 05:31:46;;;;;;;13.82;6.78;;;;;;;-0.75;63.26;99494.66;5011292;28;20056;-62
2022/03/09 05:34:32;;;;;;;15.93;7.63;;;;;;;-0.73;63.16;99493.81;5015698;28;20061;-65
2022/03/09 05:37:18;;;;;;;14.43;8.07;;;;;;;-0.70;62.53;99489.44;5015643;28;20076;-65
2022/03/09 05:40:05;;;;;;;14.00;8.85;;;;;;;-0.92;63.43;99499.97;5015580;28;20053;-63
2022/03/09 05:42:51;;;;;;;12.65;7.00;;;;;;;-0.83;62.60;99493.03;5015794;28;20064;-63
2022/03/09 05:45:37;;;;;;;14.07;7.43;;;;;;;-0.29;61.25;99492.44;5000723;28;20490;-63
2022/03/09 05:48:22;;;;;;;12.00;7.18;;;;;;;0.04;59.11;99504.03;4993015;28;20077;-64
2022/03/09 05:51:08;;;;;;;12.80;7.00;;;;;;;0.38;58.38;99505.31;5015125;28;20504;-60
2022/03/09 05:53:54;;;;;;;14.02;6.75;;;;;;;0.44;57.71;99508.63;5015497;28;20072;-61
2022/03/09 05:56:40;;;;;;;14.80;7.50;;;;;;;0.66;57.13;99513.47;5024259;28;20069;-62
2022/03/09 05:59:26;;;;;;;16.92;8.05;;;;;;;0.70;56.95;99509.94;5015421;28;20061;-63
2022/03/09 06:02:11;;;;;;;15.60;8.00;;;;;;;0.79;56.53;99511.53;5014012;28;20445;-62
2022/03/09 06:04:57;;;;;;;14.15;7.72;;;;;;;0.84;56.37;99514.91;5028904;28;20382;-62
2022/03/09 06:07:43;;;;;;;13.85;7.22;;;;;;;1.16;55.87;99519.56;5020506;28;20061;-62
2022/03/09 06:10:29;;;;;;;10.25;6.40;;;;;;;1.26;55.39;99518.47;5014735;28;20052;-63
2022/03/09 06:13:15;;;;;;;11.55;7.55;;;;;;;1.70;53.72;99521.09;5015012;28;20061;-63
2022/03/09 06:16:01;;;;;;;15.23;8.27;;;;;;;1.69;53.93;99519.41;5014731;28;20104;-67
2022/03/09 06:18:47;;;;;;;13.30;7.82;;;;;;;1.54;53.99;99530.03;5014691;28;20504;-65
2022/03/09 06:21:32;;;;;;;16.08;7.22;;;;;;;1.64;54.01;99538.47;5025885;28;20053;-63
2022/03/09 06:24:18;;;;;;;14.02;8.20;;;;;;;1.71;70.88;99543.47;5030761;28;20057;-58
2022/03/09 06:27:04;;;;;;;21.02;8.38;;;;;;;4.16;69.11;99536.69;5028063;28;20115;-62
2022/03/09 06:29:50;;;;;;;18.83;9.18;;;;;;;4.00;54.56;99543.25;5031458;28;20052;-61
2022/03/09 06:32:36;;;;;;;15.93;9.55;;;;;;;4.26;52.67;99550.25;5025473;28;20369;-60
2022/03/09 06:35:22;;;;;;;17.83;9.27;;;;;;;3.30;52.88;99546.81;5028347;28;20409;-61
2022/03/09 06:38:07;;;;;;;21.27;10.30;;;;;;;2.65;53.78;99558.75;5014152;28;20520;-60
2022/03/09 06:40:53;;;;;;;19.48;9.85;;;;;;;1.53;55.64;99557.63;5030800;28;20064;-61
2022/03/09 06:43:39;;;;;;;17.35;10.48;;;;;;;2.24;66.95;99551.06;5032623;28;20429;-61
2022/03/09 06:46:24;;;;;;;18.00;9.20;;;;;;;3.99;52.54;99550.16;5031870;28;20048;-64
2022/03/09 06:49:10;;;;;;;15.57;9.18;;;;;;;3.94;50.78;99552.03;5033800;28;20065;-64
2022/03/09 06:51:56;;;;;;;19.50;10.18;;;;;;;3.08;50.40;99542.19;5031452;28;20511;-63
2022/03/09 06:54:41;;;;;;;17.48;10.02;;;;;;;3.03;51.84;99549.25;5030287;28;20060;-61
2022/03/09 06:57:28;;;;;;;17.00;9.82;;;;;;;2.59;52.35;99547.66;5033374;28;20072;-62
2022/03/09 07:00:14;;;;;;;15.43;8.68;;;;;;;2.19;54.32;99564.94;5009643;28;20052;-61
2022/03/09 07:03:02;;;;;;;17.50;8.77;;;;;;;1.45;55.23;99562.06;5030519;28;20045;-61
2022/03/09 07:05:47;;;;;;;18.90;9.68;;;;;;;0.72;57.73;99559.81;5033274;28;20044;-61
2022/03/09 07:08:33;;;;;;;18.75;9.48;;;;;;;1.03;56.84;99565.38;5032828;28;20444;-60
2022/03/09 07:11:19;;;;;;;15.70;9.35;;;;;;;0.78;57.22;99564.03;5032877;28;20069;-62
2022/03/09 07:14:06;;;;;;;18.10;9.23;;;;;;;1.68;54.73;99565.97;5038998;28;20068;-64
2022/03/09 07:16:52;;;;;;;15.57;9.65;;;;;;;1.65;54.51;99563.44;5033038;28;20068;-62
2022/03/09 07:19:37;;;;;;;17.73;9.68;;;;;;;1.72;54.35;99560.69;5033273;28;20057;-60
2022/03/09 07:22:23;;;;;;;17.90;9.40;;;;;;;2.39;52.61;99560.19;5013394;28;20053;-62
2022/03/09 07:25:14;;;;;;;14.85;7.80;;;;;;;1.75;54.40;99559.78;5013431;28;20057;-60
2022/03/09 07:28:00;;;;;;;16.58;8.60;;;;;;;1.37;55.84;99553.59;5013415;28;20065;-60
2022/03/09 07:30:46;;;;;;;14.35;8.32;;;;;;;2.52;53.04;99560.78;5012082;28;20073;-61
2022/03/09 07:33:32;;;;;;;13.40;8.13;;;;;;;4.07;58.35;99560.31;5013272;28;20076;-61
2022/03/09 07:36:17;;;;;;;15.48;8.27;;;;;;;4.37;50.26;99559.47;4998446;28;20061;-64
2022/03/09 07:39:03;;;;;;;13.68;8.02;;;;;;;3.36;50.87;99558.78;5013117;28;20080;-61
2022/03/09 07:41:49;;;;;;;15.88;7.93;;;;;;;4.00;49.36;99566.59;5021839;28;20056;-60
2022/03/09 07:44:37;;;;;;;16.73;7.88;;;;;;;6.02;77.82;99566.97;5031724;28;20404;-58
2022/03/09 07:47:23;;;;;;;16.08;7.93;;;;;;;3.88;53.30;99554.81;5030164;28;20055;-56
2022/03/09 07:50:09;;;;;;;15.00;8.50;;;;;;;3.36;51.25;99556.19;5032003;28;20052;-57
2022/03/09 07:52:56;;;;;;;16.85;7.82;;;;;;;3.31;51.93;99552.88;5032584;28;20508;-58
2022/03/09 07:55:42;;;;;;;16.02;9.00;;;;;;;3.03;51.53;99550.97;5020791;28;20060;-58
2022/03/09 07:58:27;;;;;;;16.77;9.43;;;;;;;2.92;52.53;99556.41;5031188;28;20056;-59
2022/03/09 08:01:14;;;;;;;18.23;10.07;;;;;;;2.63;52.78;99555.38;5016524;28;20056;-58
2022/03/09 08:04:00;;;;;;;19.98;9.70;;;;;;;1.38;56.70;99558.75;5004853;28;20099;-58
2022/03/09 08:06:52;;;;;;;16.55;8.60;;;;;;;2.09;56.19;99561.69;5017637;28;20064;-59
2022/03/09 08:09:39;;;;;;;15.88;8.55;;;;;;;2.17;55.24;99558.94;5030904;28;20045;-58
2022/03/09 08:12:24;;;;;;;18.55;9.07;;;;;;;2.17;55.39;99555.50;5031125;28;20362;-58
2022/03/09 08:15:11;;;;;;;16.13;8.35;;;;;;;2.32;55.03;99549.13;5017488;28;20103;-57
2022/03/09 08:17:56;;;;;;;19.58;8.85;;;;;;;2.67;54.18;99538.88;5032465;28;20137;-59
2022/03/09 08:20:42;;;;;;;18.05;8.25;;;;;;;2.41;54.64;99543.78;5032684;28;20052;-57
2022/03/09 08:23:28;;;;;;;15.52;7.95;;;;;;;3.28;53.45;99529.63;5032443;28;20056;-59
2022/03/09 08:26:14;;;;;;;16.50;8.10;;;;;;;3.73;51.24;99525.84;5017126;28;20057;-59
2022/03/09 08:28:59;;;;;;;15.05;7.80;;;;;;;3.01;52.74;99529.44;5030810;28;20064;-58
2022/03/09 08:31:45;;;;;;;14.25;8.35;;;;;;;2.52;54.44;99522.84;5017464;28;20103;-57
2022/03/09 08:34:32;;;;;;;15.70;7.60;;;;;;;2.95;53.95;99531.28;5036769;28;20073;-59
2022/03/09 08:37:17;;;;;;;14.98;7.45;;;;;;;3.80;51.41;99526.50;5031945;28;20068;-59
2022/03/09 08:40:04;;;;;;;14.38;8.25;;;;;;;3.95;50.56;99520.03;5018160;28;20060;-60
2022/03/09 08:42:50;;;;;;;16.27;7.70;;;;;;;3.51;52.13;99516.06;5031440;28;20060;-59
2022/03/09 08:45:36;;;;;;;15.98;7.72;;;;;;;3.92;50.86;99513.19;5030768;28;20060;-58
2022/03/09 08:48:22;;;;;;;13.70;7.07;;;;;;;3.40;52.10;99512.91;5022563;28;20060;-59
2022/03/09 08:51:07;;;;;;;14.90;7.97;;;;;;;3.82;51.82;99514.34;5031371;28;20061;-59
2022/03/09 08:53:53;;;;;;;13.07;6.88;;;;;;;4.19;51.09;99512.44;5031501;28;20074;-60
2022/03/09 08:56:39;;;;;;;14.13;7.28;;;;;;;3.32;52.81;99520.88;5031479;28;20080;-59
2022/03/09 08:59:25;;;;;;;12.68;6.93;;;;;;;3.41;52.79;99520.63;5033915;28;20405;-59
2022/03/09 09:02:12;;;;;;;14.60;7.32;;;;;;;3.45;52.64;99524.84;5010678;28;20060;-61
2022/03/09 09:04:58;;;;;;;12.48;7.07;;;;;;;3.50;55.04;99522.13;5040018;28;20535;-58
2022/03/09 09:07:44;;;;;;;14.77;7.53;;;;;;;4.52;50.35;99522.66;5024944;28;20060;-59
2022/03/09 09:10:29;;;;;;;11.70;6.22;;;;;;;4.12;51.48;99519.53;5033920;28;20061;-58
2022/03/09 09:13:16;;;;;;;13.48;7.32;;;;;;;4.92;49.92;99517.94;5039970;28;20056;-60
2022/03/09 09:16:02;;;;;;;11.63;6.28;;;;;;;5.15;50.01;99513.72;5034307;28;20404;-59
2022/03/09 09:18:47;;;;;;;12.82;7.03;;;;;;;5.89;47.31;99531.94;5024007;28;20085;-62
2022/03/09 09:21:33;;;;;;;12.52;6.70;;;;;;;6.21;45.92;99527.31;5022907;28;20552;-59
2022/03/09 09:24:19;;;;;;;12.93;6.45;;;;;;;6.61;45.85;99518.84;5028923;28;20518;-60
2022/03/09 09:27:04;;;;;;;14.55;6.50;;;;;;;6.35;45.32;99518.97;5011345;28;20065;-59
2022/03/09 09:29:50;;;;;;;15.50;6.97;;;;;;;6.68;45.57;99519.44;5012795;28;20068;-58
2022/03/09 09:32:36;;;;;;;13.98;6.38;;;;;;;6.90;45.23;99516.81;5014590;28;20065;-59
2022/03/09 09:35:23;;;;;;;13.05;6.47;;;;;;;6.57;45.48;99517.25;5030781;28;20056;-63
2022/03/09 09:38:09;;;;;;;11.18;5.93;;;;;;;6.76;45.56;99517.38;5025768;28;20052;-58
2022/03/09 09:40:55;;;;;;;14.57;7.45;;;;;;;5.34;47.74;99513.06;5020946;28;20052;-60
2022/03/09 09:43:41;;;;;;;12.60;7.10;;;;;;;4.35;51.13;99517.13;5021503;28;20060;-59
2022/03/09 09:46:27;;;;;;;11.98;6.32;;;;;;;4.79;50.54;99512.28;5030653;28;20068;-62
2022/03/09 09:49:15;;;;;;;14.40;7.10;;;;;;;5.01;50.07;99505.53;4997977;28;20069;-59
2022/03/09 09:52:00;;;;;;;14.75;7.05;;;;;;;4.48;51.12;99509.81;5022574;28;20064;-58
2022/03/09 09:54:52;;;;;;;13.10;7.10;;;;;;;4.92;50.19;99502.34;5014205;28;20413;-59
2022/03/09 09:57:37;;;;;;;13.25;6.75;;;;;;;5.27;49.49;99502.03;5022035;28;20065;-60
2022/03/09 10:00:23;;;;;;;12.02;7.05;;;;;;;5.24;49.94;99496.13;5026035;28;20515;-60
2022/03/09 10:03:08;;;;;;;11.88;6.43;;;;;;;5.73;49.02;99503.88;5017095;28;20423;-62
2022/03/09 10:05:54;;;;;;;12.60;7.25;;;;;;;5.92;48.26;99509.25;5020239;28;20053;-58
2022/03/09 10:08:40;;;;;;;12.63;6.57;;;;;;;5.71;49.34;99499.66;5027987;28;20413;-59
2022/03/09 10:11:45;;;;;;;10.13;5.90;;;;;;;6.86;47.05;99489.19;5023532;28;20053;-60
2022/03/09 10:14:37;;;;;;;10.48;6.60;;;;;;;7.57;45.25;99490.53;5012506;28;20409;-57
2022/03/09 10:17:29;;;;;;;10.68;6.53;;;;;;;6.74;46.51;99477.53;5017791;28;20056;-61
2022/03/09 10:20:16;;;;;;;12.35;5.90;;;;;;;7.53;45.08;99483.75;5019963;28;20057;-58
2022/03/09 10:23:02;;;;;;;11.30;5.70;;;;;;;7.35;45.50;99468.00;5027331;28;20516;-58
2022/03/09 10:25:48;;;;;;;12.40;6.65;;;;;;;6.68;47.47;99470.81;5018191;28;20052;-58
2022/03/09 10:28:40;;;;;;;16.35;6.32;;;;;;;8.18;56.91;99464.28;5023969;28;20069;-52
2022/03/09 10:31:40;;;;;;;12.95;5.60;;;;;;;10.31;54.29;99477.03;5024370;28;20528;-52
2022/03/09 10:34:27;;;;;;;11.80;6.07;;;;;;;10.30;55.71;99483.19;5020567;28;20416;-54
2022/03/09 10:37:12;;;;;;;8.55;4.68;;;;;;;11.25;47.81;99480.44;5022166;28;20192;-53
2022/03/09 10:40:08;;;;;;;9.02;5.20;;;;;;;11.80;41.27;99491.09;5025362;28;20061;-54
2022/03/09 10:43:17;;;;;;;8.68;4.85;;;;;;;12.28;37.07;99486.44;5013436;28;20076;-52
2022/03/09 10:46:06;;;;;;;11.82;6.35;;;;;;;12.22;36.52;99490.31;5033738;28;20060;-53
2022/03/09 10:49:03;;;;;;;9.52;5.43;;;;;;;13.35;44.78;99488.25;5024335;28;20052;-53
2022/03/09 10:51:51;;;;;;;11.00;6.35;;;;;;;13.09;36.56;99477.72;5033094;28;20045;-54
2022/03/09 10:54:36;;;;;;;9.07;5.40;;;;;;;13.90;40.89;99472.19;5019035;28;20064;-56
2022/03/09 10:57:31;;;;;;;8.98;5.30;;;;;;;13.49;34.93;99474.13;5030941;28;20421;-54
2022/03/09 11:00:35;;;;;;;12.35;5.25;;;;;;;15.59;33.59;99463.25;5012763;28;20061;-55
2022/03/09 11:03:26;;;;;;;10.48;6.18;;;;;;;14.77;32.11;99463.25;5013973;28;20057;-53
2022/03/09 11:06:12;;;;;;;7.95;5.47;;;;;;;13.62;35.19;99455.72;5016889;28;20398;-52
2022/03/09 11:08:59;;;;;;;8.18;4.70;;;;;;;14.45;35.84;99466.50;5023935;28;20068;-53
2022/03/09 11:11:48;;;;;;;7.03;4.63;;;;;;;11.50;37.01;99457.97;5033442;28;20055;-53
2022/03/09 11:14:35;;;;;;;8.02;4.35;;;;;;;9.80;41.27;99460.59;5033362;28;20116;-53
2022/03/09 11:17:23;;;;;;;7.15;4.00;;;;;;;10.08;41.43;99448.59;5012906;28;20433;-53
2022/03/09 11:20:10;;;;;;;7.70;4.40;;;;;;;10.33;41.68;99456.84;5012705;28;20056;-54
2022/03/09 11:22:56;;;;;;;7.07;4.13;;;;;;;10.63;39.71;99448.19;5018443;28;20060;-51
2022/03/09 11:25:50;;;;;;;5.90;3.58;;;;;;;10.62;39.97;99461.38;5032859;28;20061;-53
2022/03/09 11:28:41;;;;;;;6.35;4.18;;;;;;;11.59;38.02;99453.91;5013411;28;20049;-55
2022/03/09 11:31:48;;;;;;;7.93;3.92;;;;;;;10.51;41.51;99444.50;4998298;28;20445;-54
2022/03/09 11:34:47;;;;;;;6.22;4.20;;;;;;;11.84;37.24;99428.75;5013439;28;20049;-54
2022/03/09 11:37:38;;;;;;;7.57;4.07;;;;;;;12.53;36.41;99445.44;5013518;28;20057;-55
2022/03/09 11:40:24;;;;;;;6.45;3.70;;;;;;;13.39;36.24;99448.44;5013411;28;20053;-54
2022/03/09 11:43:29;;;;;;;6.88;3.60;;;;;;;14.41;32.70;99441.31;5014673;28;20419;-53
2022/03/09 11:46:17;;;;;;;7.07;4.15;;;;;;;14.62;32.55;99433.59;5032628;28;20052;-54
2022/03/09 11:49:03;;;;;;;7.65;3.75;;;;;;;15.69;31.58;99425.56;5032683;28;20051;-53
2022/03/09 11:52:24;;;;;;;9.35;4.85;;;;;;;13.03;33.67;99431.63;5032742;28;20056;-53
2022/03/09 11:55:18;;;;;;;;;;;;;;;11.39;36.56;99429.75;4958149;28;20053;-54
2022/03/09 11:58:12;;;;;;;10.48;5.13;;;;;;;10.64;38.02;99422.84;5031745;28;19921;-50
2022/03/09 12:01:03;;;;;;;8.32;4.40;;;;;;;10.76;40.92;99419.50;5032331;28;20053;-54
2022/03/09 12:03:49;;;;;;;7.53;4.53;;;;;;;11.53;37.67;99418.41;5032774;28;20060;-50
2022/03/09 12:06:44;;;;;;;7.13;4.80;;;;;;;11.22;37.25;99407.19;5033429;28;20056;-53
2022/03/09 12:09:51;;;;;;;8.77;4.88;;;;;;;9.61;46.99;99413.66;5031881;28;20056;-54
2022/03/09 12:12:38;;;;;;;7.50;4.45;;;;;;;11.06;38.81;99405.50;5032347;28;20072;-54
2022/03/09 12:15:24;;;;;;;12.18;4.82;;;;;;;11.69;44.80;99396.44;5017406;28;20048;-52
2022/03/09 12:18:45;;;;;;;7.05;3.92;;;;;;;12.20;35.96;99400.25;5022820;28;20060;-53
2022/03/09 12:21:32;;;;;;;9.07;4.35;;;;;;;12.48;35.24;99376.56;5032627;28;20060;-55
2022/03/09 12:24:19;;;;;;;6.18;3.95;;;;;;;12.47;34.95;99378.34;5034019;28;20056;-51
2022/03/09 12:27:22;;;;;;;7.07;3.25;;;;;;;12.38;35.39;99353.53;5043822;28;20052;-53
2022/03/09 12:30:37;;;;;;;6.18;3.33;;;;;;;13.33;33.57;99364.69;5037600;28;20056;-55
2022/03/09 12:33:36;;;;;;;5.97;3.28;;;;;;;13.21;33.22;99363.75;5043077;28;20511;-52
2022/03/09 12:36:24;;;;;;;5.13;3.15;;;;;;;12.63;34.74;99367.63;5007362;28;20057;-55
2022/03/09 12:39:10;;;;;;;8.35;2.85;;;;;;;12.11;35.15;99349.16;5012808;28;20061;-54
2022/03/09 12:41:58;;;;;;;5.95;3.03;;;;;;;11.15;37.66;99350.78;4997679;28;20072;-55
2022/03/09 12:44:43;;;;;;;5.22;3.45;;;;;;;11.91;37.77;99358.31;5017852;28;20060;-55
2022/03/09 12:47:34;;;;;;;6.82;2.65;;;;;;;12.43;38.84;99351.47;5012278;28;20429;-54
2022/03/09 12:50:23;;;;;;;5.57;2.88;;;;;;;12.06;35.21;99348.63;5003097;28;20053;-51
2022/03/09 12:53:09;;;;;;;3.83;2.10;;;;;;;10.49;37.35;99357.31;5011130;28;20056;-52
2022/03/09 12:55:55;;;;;;;5.10;2.58;;;;;;;10.01;38.74;99341.69;5010845;28;20053;-51
2022/03/09 12:58:41;;;;;;;4.75;2.45;;;;;;;11.98;36.66;99340.41;5011820;28;20064;-53
2022/03/09 13:01:27;;;;;;;7.30;2.78;;;;;;;12.70;34.02;99349.66;5011798;28;20691;-53
2022/03/09 13:04:13;;;;;;;6.20;2.35;;;;;;;13.42;33.07;99350.00;5011624;28;20060;-54